createdAt,value
2023-01-07T00:02:12.861Z,13.45
2023-01-07T00:04:40.722Z,10.98
2023-01-07T00:07:09.957Z,12.32
2023-01-07T00:09:39.812Z,11.93
2023-01-07T00:12:07.699Z,12.07
2023-01-07T00:14:35.580Z,14.55
2023-01-07T00:17:03.415Z,12.77
2023-01-07T00:19:31.395Z,12.15
2023-01-07T00:22:04.296Z,14.48
2023-01-07T00:24:32.173Z,11.75
2023-01-07T00:27:00.061Z,14.00
2023-01-07T00:29:27.925Z,13.13
2023-01-07T00:31:57.008Z,18.77
2023-01-07T00:34:25.197Z,14.88
2023-01-07T00:37:13.196Z,16.00
2023-01-07T00:39:42.022Z,15.50
2023-01-07T00:42:32.019Z,17.65
2023-01-07T00:45:00.286Z,14.77
2023-01-07T00:47:28.217Z,15.07
2023-01-07T00:49:56.109Z,13.90
2023-01-07T00:52:23.949Z,13.15
2023-01-07T00:54:51.805Z,12.68
2023-01-07T00:57:19.701Z,12.32
2023-01-07T00:59:47.626Z,15.95
2023-01-07T01:02:15.529Z,15.77
2023-01-07T01:04:43.436Z,14.10
2023-01-07T01:07:11.339Z,15.00
2023-01-07T01:09:39.234Z,15.75
2023-01-07T01:12:08.153Z,13.10
2023-01-07T01:14:36.002Z,14.65
2023-01-07T01:17:03.908Z,15.27
2023-01-07T01:19:31.769Z,13.60
2023-01-07T01:22:15.703Z,12.90
2023-01-07T01:24:43.648Z,17.25
2023-01-07T01:27:11.534Z,13.43
2023-01-07T01:29:39.405Z,14.45
2023-01-07T01:32:07.474Z,14.50
2023-01-07T01:34:35.333Z,14.07
2023-01-07T01:37:03.981Z,18.52
2023-01-07T01:39:32.282Z,15.55
2023-01-07T01:42:00.324Z,14.30
2023-01-07T01:44:54.851Z,12.02
2023-01-07T01:47:44.720Z,15.48
2023-01-07T01:50:40.723Z,10.57
2023-01-07T01:53:14.640Z,11.27
2023-01-07T01:55:52.388Z,10.45
2023-01-07T01:58:42.412Z,13.70
2023-01-07T02:01:11.711Z,9.93
2023-01-07T02:03:40.075Z,12.77
2023-01-07T02:06:14.410Z,10.60
2023-01-07T02:08:42.367Z,10.68
2023-01-07T02:11:37.453Z,9.93
2023-01-07T02:14:21.212Z,9.25
2023-01-07T02:17:16.116Z,12.32
2023-01-07T02:20:02.735Z,11.10
2023-01-07T02:23:05.391Z,9.10
2023-01-07T02:26:13.119Z,9.18
2023-01-07T02:29:38.054Z,9.02
2023-01-07T02:32:42.083Z,10.25
2023-01-07T02:36:02.615Z,10.00
2023-01-07T02:38:46.438Z,9.70
2023-01-07T02:41:18.040Z,8.75
2023-01-07T02:44:02.002Z,11.32
2023-01-07T02:47:08.006Z,10.55
2023-01-07T02:49:36.257Z,9.85
2023-01-07T02:52:25.229Z,9.57
2023-01-07T02:55:19.491Z,10.23
2023-01-07T02:58:15.141Z,10.52
2023-01-07T03:01:25.436Z,10.55
2023-01-07T03:04:10.285Z,8.95
2023-01-07T03:07:10.201Z,8.18
2023-01-07T03:10:04.264Z,11.60
2023-01-07T03:12:56.565Z,7.18
2023-01-07T03:15:53.630Z,9.50
2023-01-07T03:18:29.684Z,9.95
2023-01-07T03:21:07.715Z,9.10
2023-01-07T03:23:39.115Z,9.20
2023-01-07T03:26:08.007Z,8.43
2023-01-07T03:28:41.416Z,8.30
2023-01-07T03:31:14.030Z,9.20
2023-01-07T03:33:52.173Z,7.55
2023-01-07T03:36:26.047Z,7.50
2023-01-07T03:38:59.877Z,6.20
2023-01-07T03:41:47.495Z,7.72
2023-01-07T03:44:15.479Z,8.60
2023-01-07T03:46:43.838Z,7.60
2023-01-07T03:49:12.303Z,7.05
2023-01-07T03:51:41.720Z,7.50
2023-01-07T03:54:09.693Z,8.27
2023-01-07T03:56:37.554Z,9.70
2023-01-07T03:59:05.449Z,12.73
2023-01-07T04:01:33.462Z,11.32
2023-01-07T04:04:03.328Z,10.25
2023-01-07T04:06:31.778Z,11.73
2023-01-07T04:08:59.735Z,14.55
2023-01-07T04:11:28.188Z,9.98
2023-01-07T04:13:57.109Z,12.00
2023-01-07T04:16:25.070Z,16.48
2023-01-07T04:18:52.999Z,13.45
2023-01-07T04:21:21.586Z,12.50
2023-01-07T04:23:49.752Z,8.60
2023-01-07T04:26:17.637Z,15.52
2023-01-07T04:28:45.568Z,7.70
2023-01-07T04:31:14.066Z,6.93
2023-01-07T04:33:42.133Z,7.20
2023-01-07T04:36:13.129Z,7.00
2023-01-07T04:38:41.426Z,7.60
2023-01-07T04:41:09.490Z,7.20
2023-01-07T04:43:37.343Z,5.07
2023-01-07T04:46:10.944Z,6.13
2023-01-07T04:48:39.132Z,4.60
2023-01-07T04:51:08.208Z,10.93
2023-01-07T04:53:36.136Z,4.45
2023-01-07T04:56:06.202Z,4.53
2023-01-07T04:58:34.252Z,4.07
2023-01-07T05:01:03.734Z,4.43
2023-01-07T05:03:36.464Z,4.93
2023-01-07T05:06:05.924Z,4.97
2023-01-07T05:08:34.858Z,4.07
2023-01-07T05:11:04.902Z,3.47
2023-01-07T05:13:35.287Z,3.40
2023-01-07T05:18:32.693Z,2.60
2023-01-07T05:21:00.525Z,3.63
2023-01-07T05:23:29.711Z,3.80
2023-01-07T05:25:58.894Z,2.17
2023-01-07T05:28:52.097Z,2.40
2023-01-07T05:31:20.884Z,2.08
2023-01-07T05:33:48.911Z,3.33
2023-01-07T05:36:17.149Z,3.42
2023-01-07T05:38:45.091Z,3.10
2023-01-07T05:41:13.188Z,1.98
2023-01-07T05:43:41.088Z,2.00
2023-01-07T05:46:08.998Z,2.47
2023-01-07T05:48:36.896Z,2.35
2023-01-07T05:51:04.982Z,1.90
2023-01-07T05:53:32.829Z,1.88
2023-01-07T05:56:01.080Z,2.08
2023-01-07T05:58:29.307Z,1.88
2023-01-07T06:00:57.200Z,2.53
2023-01-07T06:03:25.228Z,1.83
2023-01-07T06:05:53.158Z,2.05
2023-01-07T06:08:22.992Z,6.60
2023-01-07T06:10:51.439Z,11.27
2023-01-07T06:13:19.424Z,1.30
2023-01-07T06:15:47.266Z,1.65
2023-01-07T06:18:15.229Z,5.18
2023-01-07T06:20:43.060Z,1.85
2023-01-07T06:23:10.901Z,1.95
2023-01-07T06:25:38.754Z,3.33
2023-01-07T06:28:06.584Z,1.58
2023-01-07T06:30:34.421Z,1.67
2023-01-07T06:33:02.257Z,6.20
2023-01-07T06:35:30.064Z,3.10
2023-01-07T06:37:58.267Z,2.00
2023-01-07T06:40:26.099Z,2.10
2023-01-07T06:42:54.018Z,3.08
2023-01-07T06:45:21.983Z,2.00
2023-01-07T06:47:49.967Z,1.60
2023-01-07T06:50:18.036Z,2.35
2023-01-07T06:52:45.875Z,1.60
2023-01-07T06:55:13.793Z,2.30
2023-01-07T06:57:41.596Z,1.95
2023-01-07T07:00:10.041Z,3.83
2023-01-07T07:02:37.957Z,1.70
2023-01-07T07:05:06.126Z,1.83
2023-01-07T07:07:34.109Z,1.85
2023-01-07T07:10:07.097Z,1.40
2023-01-07T07:12:36.536Z,1.85
2023-01-07T07:15:06.866Z,1.67
2023-01-07T07:17:34.996Z,1.50
2023-01-07T07:20:03.519Z,1.98
2023-01-07T07:22:31.352Z,1.90
2023-01-07T07:24:59.201Z,1.60
2023-01-07T07:27:27.088Z,1.90
2023-01-07T07:29:54.919Z,1.83
2023-01-07T07:32:28.156Z,1.60
2023-01-07T07:34:56.517Z,1.60
2023-01-07T07:37:24.415Z,3.08
2023-01-07T07:39:52.315Z,5.78
2023-01-07T07:42:20.212Z,1.92
2023-01-07T07:44:50.218Z,2.80
2023-01-07T07:47:19.074Z,1.98
2023-01-07T07:49:46.994Z,1.73
2023-01-07T07:52:14.836Z,2.20
2023-01-07T07:54:42.655Z,4.05
2023-01-07T07:57:10.553Z,2.35
2023-01-07T07:59:38.362Z,2.08
2023-01-07T08:02:08.167Z,1.85
2023-01-07T08:04:36.004Z,2.90
2023-01-07T08:07:03.811Z,2.20
2023-01-07T08:09:32.502Z,1.83
2023-01-07T08:12:00.434Z,1.85
2023-01-07T08:14:28.296Z,2.17
2023-01-07T08:16:56.230Z,1.58
2023-01-07T08:19:24.064Z,2.45
2023-01-07T08:21:52.056Z,6.55
2023-01-07T08:24:20.077Z,1.77
2023-01-07T08:26:49.892Z,3.00
2023-01-07T08:29:17.835Z,3.75
2023-01-07T08:31:45.728Z,2.88
2023-01-07T08:34:13.569Z,1.80
2023-01-07T08:36:41.377Z,2.28
2023-01-07T08:39:09.612Z,1.60
2023-01-07T08:41:37.436Z,1.65
2023-01-07T08:44:05.435Z,1.42
2023-01-07T08:46:33.339Z,2.47
2023-01-07T08:49:01.349Z,1.83
2023-01-07T08:51:29.223Z,1.50
2023-01-07T08:53:57.122Z,2.03
2023-01-07T08:56:24.972Z,4.28
2023-01-07T08:58:52.829Z,2.67
2023-01-07T09:01:20.873Z,9.27
2023-01-07T09:03:49.000Z,3.85
2023-01-07T09:06:16.883Z,1.58
2023-01-07T09:08:44.786Z,1.40
2023-01-07T09:11:12.582Z,1.80
2023-01-07T09:13:40.427Z,1.92
2023-01-07T09:16:08.754Z,2.35
2023-01-07T09:18:36.667Z,2.97
2023-01-07T09:21:04.623Z,3.80
2023-01-07T09:23:32.449Z,2.03
2023-01-07T09:26:00.270Z,2.00
2023-01-07T09:28:28.103Z,1.40
2023-01-07T09:30:56.894Z,1.58
2023-01-07T09:33:25.125Z,1.40
2023-01-07T09:35:53.023Z,3.33
2023-01-07T09:38:20.864Z,1.60
2023-01-07T09:40:49.184Z,2.78
2023-01-07T09:43:59.430Z,1.98
2023-01-07T09:46:25.432Z,2.10
2023-01-07T09:49:02.329Z,1.60
2023-01-07T09:51:43.699Z,1.40
2023-01-07T09:56:49.667Z,2.03
2023-01-07T09:59:18.987Z,1.65
2023-01-07T10:01:56.779Z,1.90
2023-01-07T10:04:36.416Z,1.63
2023-01-07T10:07:22.451Z,1.98
2023-01-07T10:10:11.103Z,2.35
2023-01-07T10:13:09.545Z,3.30
2023-01-07T10:15:51.290Z,4.57
2023-01-07T10:19:04.165Z,1.48
2023-01-07T10:21:46.053Z,1.25
2023-01-07T10:24:27.836Z,2.53
2023-01-07T10:27:00.930Z,2.45
2023-01-07T10:29:35.681Z,1.35
2023-01-07T10:32:22.300Z,1.33
2023-01-07T10:34:57.133Z,2.25
2023-01-07T10:37:37.774Z,2.10
2023-01-07T10:40:33.101Z,1.65
2023-01-07T10:43:03.579Z,1.45
2023-01-07T10:46:01.186Z,1.83
2023-01-07T10:48:48.423Z,1.45
2023-01-07T10:51:47.351Z,1.75
2023-01-07T10:54:21.201Z,1.38
2023-01-07T10:56:58.064Z,8.95
2023-01-07T10:59:26.431Z,1.65
2023-01-07T11:01:58.441Z,0.93
2023-01-07T11:04:27.675Z,1.50
2023-01-07T11:07:14.564Z,1.30
2023-01-07T11:09:45.540Z,2.55
2023-01-07T11:12:41.820Z,1.40
2023-01-07T11:15:30.456Z,1.20
2023-01-07T11:18:06.200Z,0.88
2023-01-07T11:20:52.003Z,3.25
2023-01-07T11:23:38.030Z,1.35
2023-01-07T11:26:08.527Z,0.90
2023-01-07T11:28:37.876Z,1.17
2023-01-07T11:31:05.851Z,2.53
2023-01-07T11:34:02.157Z,1.48
2023-01-07T11:36:44.378Z,1.77
2023-01-07T11:39:24.293Z,0.90
2023-01-07T11:42:33.113Z,0.75
2023-01-07T11:45:19.742Z,0.88
2023-01-07T11:48:16.792Z,0.95
2023-01-07T11:51:10.634Z,0.93
2023-01-07T11:53:43.701Z,1.08
2023-01-07T11:56:20.753Z,1.33
2023-01-07T11:59:13.367Z,1.02
2023-01-07T12:01:56.054Z,8.00
2023-01-07T12:04:34.008Z,3.17
2023-01-07T12:07:11.725Z,1.98
2023-01-07T12:09:41.434Z,0.77
2023-01-07T12:12:39.544Z,1.40
2023-01-07T12:15:18.305Z,0.90
2023-01-07T12:17:50.831Z,1.33
2023-01-07T12:20:35.831Z,1.50
2023-01-07T12:23:25.087Z,1.10
2023-01-07T12:26:19.705Z,1.48
2023-01-07T12:28:59.760Z,1.00
2023-01-07T12:31:36.263Z,1.30
2023-01-07T12:34:37.908Z,0.90
2023-01-07T12:37:37.240Z,3.33
2023-01-07T12:40:16.022Z,1.23
2023-01-07T12:42:50.825Z,1.30
2023-01-07T12:45:47.809Z,1.25
2023-01-07T12:48:38.576Z,1.63
2023-01-07T12:51:28.610Z,1.95
2023-01-07T12:54:25.930Z,1.45
2023-01-07T12:57:28.659Z,2.03
2023-01-07T12:59:59.250Z,2.45
2023-01-07T13:02:51.262Z,4.20
2023-01-07T13:05:26.783Z,1.67
2023-01-07T13:08:09.772Z,1.70
2023-01-07T13:10:42.640Z,3.63
2023-01-07T13:13:22.089Z,1.88
2023-01-07T13:15:50.200Z,1.20
2023-01-07T13:18:20.835Z,1.50
2023-01-07T13:21:03.540Z,3.22
2023-01-07T13:23:46.134Z,6.85
2023-01-07T13:26:28.096Z,2.03
2023-01-07T13:29:04.943Z,3.58
2023-01-07T13:32:04.262Z,7.85
2023-01-07T13:35:13.588Z,3.70
2023-01-07T13:37:50.332Z,2.38
2023-01-07T13:40:49.915Z,1.88
2023-01-07T13:43:48.247Z,1.88
2023-01-07T13:46:20.154Z,10.57
2023-01-07T13:48:50.707Z,2.35
2023-01-07T13:51:34.715Z,3.97
2023-01-07T13:54:02.776Z,3.40
2023-01-07T13:56:36.704Z,1.90
2023-01-07T13:59:07.672Z,1.88
2023-01-07T14:02:14.630Z,5.93
2023-01-07T14:05:11.318Z,1.73
2023-01-07T14:07:52.051Z,1.83
2023-01-07T14:10:32.081Z,2.05
2023-01-07T14:13:42.959Z,2.03
2023-01-07T14:16:26.293Z,3.17
2023-01-07T14:19:12.665Z,2.67
2023-01-07T14:22:25.455Z,3.05
2023-01-07T14:25:07.984Z,1.58
2023-01-07T14:27:58.671Z,1.25
2023-01-07T14:30:34.084Z,1.05
2023-01-07T14:33:04.488Z,1.40
2023-01-07T14:35:36.920Z,2.53
2023-01-07T14:38:29.262Z,2.60
2023-01-07T14:41:03.424Z,1.48
2023-01-07T14:43:43.474Z,1.73
2023-01-07T14:46:36.902Z,2.30
2023-01-07T14:49:05.372Z,4.25
2023-01-07T14:52:07.338Z,1.65
2023-01-07T14:55:04.238Z,2.53
2023-01-07T14:58:19.090Z,2.22
2023-01-07T15:01:33.029Z,1.10
2023-01-07T15:04:53.492Z,1.33
2023-01-07T15:07:27.070Z,3.10
2023-01-07T15:10:19.081Z,1.08
2023-01-07T15:13:13.108Z,1.00
2023-01-07T15:16:01.968Z,1.30
2023-01-07T15:18:45.882Z,2.95
2023-01-07T15:21:30.004Z,1.17
2023-01-07T15:24:12.675Z,1.45
2023-01-07T15:26:53.258Z,1.05
2023-01-07T15:29:56.471Z,0.98
2023-01-07T15:32:45.549Z,1.27
2023-01-07T15:35:20.497Z,1.05
2023-01-07T15:37:50.594Z,2.15
2023-01-07T15:40:21.389Z,1.67
2023-01-07T15:42:52.377Z,1.30
2023-01-07T15:45:26.826Z,0.75
2023-01-07T15:48:11.808Z,1.70
2023-01-07T15:50:45.688Z,1.38
2023-01-07T15:53:13.660Z,1.33
2023-01-07T15:56:06.536Z,0.90
2023-01-07T15:58:39.970Z,1.88
2023-01-07T16:01:17.791Z,1.83
2023-01-07T16:03:49.647Z,3.22
2023-01-07T16:06:35.710Z,1.17
2023-01-07T16:09:18.331Z,1.33
2023-01-07T16:11:46.952Z,3.38
2023-01-07T16:14:18.680Z,3.53
2023-01-07T16:16:46.652Z,1.25
2023-01-07T16:19:20.594Z,1.30
2023-01-07T16:21:55.876Z,1.38
2023-01-07T16:24:24.232Z,1.33
2023-01-07T16:26:56.018Z,1.38
2023-01-07T16:29:27.627Z,2.25
2023-01-07T16:31:56.415Z,1.55
2023-01-07T16:34:24.304Z,2.92
2023-01-07T16:36:58.164Z,2.08
2023-01-07T16:39:35.703Z,1.95
2023-01-07T16:42:22.242Z,2.00
2023-01-07T16:44:52.797Z,0.98
2023-01-07T16:47:31.161Z,3.05
2023-01-07T16:50:18.979Z,4.25
2023-01-07T16:52:52.475Z,3.63
2023-01-07T16:55:50.686Z,2.88
2023-01-07T16:58:55.589Z,11.77
2023-01-07T17:01:35.089Z,6.53
2023-01-07T17:04:09.655Z,4.53
2023-01-07T17:06:42.425Z,3.28
2023-01-07T17:09:34.324Z,4.28
2023-01-07T17:12:02.832Z,3.55
2023-01-07T17:14:33.457Z,5.55
2023-01-07T17:17:07.147Z,2.00
2023-01-07T17:19:41.993Z,1.95
2023-01-07T17:22:39.356Z,3.30
2023-01-07T17:25:15.494Z,1.85
2023-01-07T17:27:55.522Z,1.90
2023-01-07T17:30:29.036Z,2.17
2023-01-07T17:32:57.000Z,1.88
2023-01-07T17:35:25.788Z,2.75
2023-01-07T17:37:56.807Z,1.75
2023-01-07T17:40:24.847Z,1.67
2023-01-07T17:43:11.328Z,2.40
2023-01-07T17:45:39.252Z,2.17
2023-01-07T17:48:13.955Z,1.98
2023-01-07T17:50:42.700Z,2.00
2023-01-07T17:53:22.920Z,2.13
2023-01-07T17:55:50.973Z,1.98
2023-01-07T17:58:34.568Z,3.53
2023-01-07T18:01:07.978Z,2.33
2023-01-07T18:03:36.793Z,2.40
2023-01-07T18:06:09.777Z,2.05
2023-01-07T18:08:37.608Z,4.55
2023-01-07T18:11:24.107Z,2.92
2023-01-07T18:13:52.348Z,3.00
2023-01-07T18:16:20.294Z,1.83
2023-01-07T18:18:48.360Z,2.58
2023-01-07T18:21:16.336Z,3.03
2023-01-07T18:23:45.874Z,6.13
2023-01-07T18:26:16.907Z,1.90
2023-01-07T18:28:44.984Z,1.88
2023-01-07T18:31:13.488Z,1.83
2023-01-07T18:33:41.534Z,3.78
2023-01-07T18:36:10.865Z,3.58
2023-01-07T18:38:39.423Z,3.80
2023-01-07T18:41:07.352Z,2.20
2023-01-07T18:43:35.405Z,3.08
2023-01-07T18:46:09.247Z,3.70
2023-01-07T18:48:37.783Z,3.25
2023-01-07T18:51:10.653Z,4.80
2023-01-07T18:53:39.158Z,2.20
2023-01-07T18:56:11.474Z,2.55
2023-01-07T18:58:39.927Z,2.80
2023-01-07T19:01:09.428Z,2.30
2023-01-07T19:03:38.492Z,2.65
2023-01-07T19:06:10.697Z,2.95
2023-01-07T19:08:39.215Z,6.55
2023-01-07T19:11:13.174Z,2.30
2023-01-07T19:13:41.511Z,4.05
2023-01-07T19:16:11.826Z,3.22
2023-01-07T19:18:40.373Z,2.15
2023-01-07T19:21:11.966Z,2.85
2023-01-07T19:23:40.076Z,3.05
2023-01-07T19:26:11.976Z,3.05
2023-01-07T19:28:40.086Z,2.20
2023-01-07T19:31:09.698Z,2.42
2023-01-07T19:33:37.943Z,2.83
2023-01-07T19:36:09.225Z,2.42
2023-01-07T19:38:42.748Z,2.42
2023-01-07T19:41:16.358Z,3.42
2023-01-07T19:43:46.360Z,3.63
2023-01-07T19:46:15.527Z,3.00
2023-01-07T19:48:43.728Z,4.72
2023-01-07T19:51:11.830Z,3.30
2023-01-07T19:53:40.086Z,3.05
2023-01-07T19:56:10.745Z,3.65
2023-01-07T19:58:39.310Z,4.20
2023-01-07T20:01:11.133Z,2.97
2023-01-07T20:03:39.863Z,3.97
2023-01-07T20:06:11.812Z,4.60
2023-01-07T20:08:40.405Z,3.88
2023-01-07T20:11:08.682Z,4.25
2023-01-07T20:13:37.883Z,6.93
2023-01-07T20:16:10.710Z,3.50
2023-01-07T20:18:44.668Z,5.35
2023-01-07T20:21:14.485Z,4.70
2023-01-07T20:23:43.158Z,4.10
2023-01-07T20:26:16.305Z,4.72
2023-01-07T20:28:44.536Z,3.00
2023-01-07T20:31:16.359Z,3.33
2023-01-07T20:33:44.908Z,4.30
2023-01-07T20:36:24.350Z,4.22
2023-01-07T20:38:52.742Z,3.63
2023-01-07T20:41:24.569Z,3.08
2023-01-07T20:43:55.918Z,3.13
2023-01-07T20:48:52.806Z,4.80
2023-01-07T20:51:21.096Z,4.05
2023-01-07T20:53:49.191Z,4.05
2023-01-07T20:56:19.614Z,4.30
2023-01-07T20:58:48.296Z,3.95
2023-01-07T21:01:19.977Z,3.55
2023-01-07T21:03:48.590Z,2.30
2023-01-07T21:06:19.496Z,5.00
2023-01-07T21:08:49.924Z,4.68
2023-01-07T21:11:21.395Z,5.82
2023-01-07T21:13:50.844Z,3.67
2023-01-07T21:16:19.431Z,2.35
2023-01-07T21:18:47.481Z,3.67
2023-01-07T21:21:23.841Z,3.58
2023-01-07T21:23:54.497Z,3.10
2023-01-07T21:26:23.481Z,3.47
2023-01-07T21:28:55.970Z,2.80
2023-01-07T21:31:24.509Z,5.10
2023-01-07T21:33:58.829Z,3.15
2023-01-07T21:36:27.892Z,3.70
2023-01-07T21:38:58.779Z,3.45
2023-01-07T21:41:28.088Z,1.77
2023-01-07T21:43:56.353Z,2.95
2023-01-07T21:46:24.389Z,2.60
2023-01-07T21:48:52.377Z,2.60
2023-01-07T21:51:26.305Z,4.45
2023-01-07T21:53:55.999Z,3.47
2023-01-07T21:56:26.862Z,2.67
2023-01-07T21:58:55.202Z,2.72
2023-01-07T22:01:28.159Z,3.70
2023-01-07T22:03:58.574Z,3.63
2023-01-07T22:06:33.300Z,2.43
2023-01-07T22:09:05.479Z,4.63
2023-01-07T22:11:35.547Z,3.53
2023-01-07T22:14:03.622Z,3.67
2023-01-07T22:16:32.295Z,3.20
2023-01-07T22:19:01.428Z,5.57
2023-01-07T22:21:29.565Z,2.85
2023-01-07T22:23:57.594Z,3.50
2023-01-07T22:26:25.623Z,4.25
2023-01-07T22:28:57.084Z,2.33
2023-01-07T22:31:33.091Z,3.25
2023-01-07T22:34:01.180Z,3.17
2023-01-07T22:36:34.723Z,2.45
2023-01-07T22:39:12.024Z,4.40
2023-01-07T22:41:40.419Z,2.33
2023-01-07T22:44:13.713Z,2.58
2023-01-07T22:46:45.544Z,3.15
2023-01-07T22:49:13.604Z,3.13
2023-01-07T22:51:46.988Z,2.90
2023-01-07T22:54:16.358Z,3.35
2023-01-07T22:56:44.892Z,4.55
2023-01-07T22:59:12.865Z,5.32
2023-01-07T23:01:40.720Z,3.15
2023-01-07T23:04:09.234Z,3.20
2023-01-07T23:06:37.188Z,5.93
2023-01-07T23:09:05.378Z,5.15
2023-01-07T23:11:48.294Z,2.85
2023-01-07T23:14:21.935Z,2.55
2023-01-07T23:16:51.209Z,2.67
2023-01-07T23:19:21.102Z,2.20
2023-01-07T23:21:52.606Z,2.37
2023-01-07T23:24:21.806Z,3.05
2023-01-07T23:26:52.058Z,3.63
2023-01-07T23:29:20.164Z,2.63
2023-01-07T23:31:48.229Z,2.92
2023-01-07T23:34:17.020Z,3.70
2023-01-07T23:36:44.978Z,2.53
2023-01-07T23:39:12.955Z,2.00
2023-01-07T23:41:40.875Z,2.80
2023-01-07T23:44:08.822Z,2.58
2023-01-07T23:46:36.758Z,3.17
2023-01-07T23:49:04.824Z,2.85
2023-01-07T23:51:32.683Z,2.95
2023-01-07T23:54:00.670Z,1.60
2023-01-07T23:56:28.590Z,1.95
2023-01-07T23:58:56.484Z,2.10
